createdAt,value
2018-01-29T16:09:44.017Z,21.20
2018-01-29T16:12:12.266Z,21.20
2018-01-29T16:14:41.362Z,21.50
2018-01-29T16:17:09.597Z,21.50
2018-01-29T16:19:37.876Z,22.00
2018-01-29T16:22:06.126Z,22.20
2018-01-29T16:24:34.377Z,22.30
2018-01-29T16:27:03.434Z,22.40
2018-01-29T16:29:31.666Z,22.40
2018-01-29T16:31:59.963Z,22.50
2018-01-29T16:34:28.200Z,22.50
2018-01-29T16:36:57.264Z,22.60
2018-01-29T16:39:25.546Z,22.60
2018-01-29T16:41:53.836Z,22.60
2018-01-29T16:44:22.909Z,22.70
2018-01-29T16:46:51.144Z,22.70
2018-01-29T16:49:19.417Z,22.70
2018-01-29T16:51:47.672Z,22.80
2018-01-29T16:54:16.729Z,22.80
2018-01-29T16:56:45.014Z,22.80
2018-01-29T16:59:13.252Z,22.80
2018-01-29T17:01:41.652Z,22.80
2018-01-29T17:04:09.983Z,22.80
2018-01-29T17:06:39.054Z,22.80
2018-01-29T17:09:07.306Z,22.80
2018-01-29T17:11:35.613Z,22.80
2018-01-29T17:14:03.891Z,22.80
2018-01-29T17:16:32.191Z,22.80
2018-01-29T17:19:01.240Z,22.80
2018-01-29T17:21:29.476Z,22.80
2018-01-29T17:23:57.783Z,22.80
2018-01-29T17:26:26.022Z,22.80
2018-01-29T17:28:54.288Z,22.80
2018-01-29T17:31:22.579Z,22.80
2018-01-29T17:33:50.829Z,22.80
2018-01-29T17:36:20.812Z,22.90
2018-01-29T17:38:49.107Z,22.90
2018-01-29T17:41:17.389Z,22.90
2018-01-29T17:43:45.632Z,22.90
2018-01-29T17:46:13.916Z,22.90
2018-01-29T17:48:42.285Z,22.90
2018-01-29T17:51:10.526Z,22.90
2018-01-29T17:53:40.171Z,22.90
2018-01-29T17:56:08.462Z,22.90
2018-01-29T17:58:36.769Z,22.90
2018-01-29T18:01:06.488Z,22.90
2018-01-29T18:03:35.558Z,22.90
2018-01-29T18:06:03.857Z,22.90
2018-01-29T18:08:32.908Z,22.90
2018-01-29T18:11:01.185Z,22.90
2018-01-29T18:13:29.427Z,22.90
2018-01-29T18:15:57.739Z,22.90
2018-01-29T18:18:26.030Z,22.90
2018-01-29T18:20:54.336Z,22.90
2018-01-29T18:23:23.589Z,22.90
2018-01-29T18:25:51.884Z,22.90
2018-01-29T18:28:20.167Z,22.90
2018-01-29T18:30:48.444Z,22.90
2018-01-29T18:33:16.741Z,22.90
2018-01-29T18:35:45.800Z,22.90
2018-01-29T18:38:14.094Z,22.90
2018-01-29T18:40:42.375Z,22.90
2018-01-29T18:43:10.617Z,22.90
2018-01-29T18:45:38.953Z,22.90
2018-01-29T18:48:07.968Z,22.90
2018-01-29T18:50:36.230Z,22.90
2018-01-29T18:53:04.476Z,22.90
2018-01-29T18:55:32.763Z,22.90
2018-01-29T18:58:01.782Z,22.90
2018-01-29T19:00:30.071Z,22.90
2018-01-29T19:02:58.376Z,22.90
2018-01-29T19:05:26.677Z,22.90
2018-01-29T19:07:54.934Z,22.90
2018-01-29T19:10:23.208Z,22.90
2018-01-29T19:12:51.511Z,22.90
2018-01-29T19:15:20.589Z,22.90
2018-01-29T19:17:49.244Z,22.90
2018-01-29T19:20:17.548Z,22.90
2018-01-29T19:22:45.793Z,22.90
2018-01-29T19:25:14.113Z,22.90
2018-01-29T19:27:42.359Z,22.90
2018-01-29T19:30:10.618Z,22.90
2018-01-29T19:32:38.922Z,22.90
2018-01-29T19:35:07.406Z,22.90
2018-01-29T19:37:35.685Z,22.90
2018-01-29T19:40:04.008Z,22.90
2018-01-29T19:42:33.791Z,23.00
2018-01-29T19:45:02.140Z,22.90
